createdAt,value
2023-03-07T00:00:15.275Z,10.15
2023-03-07T00:02:42.252Z,11.23
2023-03-07T00:05:09.875Z,12.00
2023-03-07T00:07:37.139Z,9.50
2023-03-07T00:10:04.424Z,8.40
2023-03-07T00:12:31.414Z,11.10
2023-03-07T00:14:58.398Z,11.93
2023-03-07T00:17:25.304Z,13.05
2023-03-07T00:19:52.511Z,12.95
2023-03-07T00:22:19.579Z,12.75
2023-03-07T00:24:48.642Z,13.48
2023-03-07T00:27:15.731Z,13.20
2023-03-07T00:29:42.639Z,16.48
2023-03-07T00:32:09.596Z,13.65
2023-03-07T00:34:36.730Z,11.32
2023-03-07T00:37:03.675Z,15.88
2023-03-07T00:39:30.744Z,13.93
2023-03-07T00:41:57.739Z,13.73
2023-03-07T00:44:25.492Z,14.57
2023-03-07T00:46:53.064Z,19.05
2023-03-07T00:49:20.902Z,14.77
2023-03-07T00:51:48.324Z,13.85
2023-03-07T00:54:16.339Z,15.10
2023-03-07T00:56:43.693Z,18.35
2023-03-07T00:59:11.041Z,22.38
2023-03-07T01:01:38.701Z,18.20
2023-03-07T01:04:05.811Z,14.25
2023-03-07T01:06:34.208Z,16.50
2023-03-07T01:09:07.226Z,21.45
2023-03-07T01:11:36.037Z,17.25
2023-03-07T01:14:05.825Z,27.38
2023-03-07T01:16:37.992Z,33.75
2023-03-07T01:19:12.583Z,27.92
2023-03-07T01:21:42.655Z,34.58
2023-03-07T01:24:15.192Z,24.27
2023-03-07T01:26:42.896Z,23.90
2023-03-07T01:29:12.263Z,41.47
2023-03-07T01:31:39.600Z,29.67
2023-03-07T01:34:07.598Z,22.88
2023-03-07T01:36:36.456Z,44.30
2023-03-07T01:39:17.675Z,40.33
2023-03-07T01:41:52.477Z,24.35
2023-03-07T01:44:25.866Z,48.90
2023-03-07T01:46:56.180Z,41.72
2023-03-07T01:49:52.817Z,73.05
2023-03-07T01:52:43.264Z,49.83
2023-03-07T01:55:27.204Z,29.35
2023-03-07T01:58:06.825Z,31.52
2023-03-07T02:00:36.218Z,29.30
2023-03-07T02:03:20.602Z,41.42
2023-03-07T02:05:55.885Z,32.35
2023-03-07T02:08:27.607Z,35.67
2023-03-07T02:10:54.908Z,26.20
2023-03-07T02:13:21.982Z,28.25
2023-03-07T02:15:51.069Z,31.90
2023-03-07T02:18:24.981Z,49.80
2023-03-07T02:21:12.236Z,29.08
2023-03-07T02:24:12.325Z,28.30
2023-03-07T02:26:49.916Z,30.25
2023-03-07T02:29:17.103Z,31.42
2023-03-07T02:31:47.096Z,28.17
2023-03-07T02:34:24.900Z,33.45
2023-03-07T02:37:31.373Z,35.47
2023-03-07T02:42:33.080Z,34.92
2023-03-07T02:45:10.289Z,35.67
2023-03-07T02:47:38.936Z,35.35
2023-03-07T02:50:07.094Z,33.15
2023-03-07T02:52:37.140Z,35.50
2023-03-07T02:55:04.773Z,33.20
2023-03-07T02:57:36.022Z,35.95
2023-03-07T03:00:10.058Z,40.60
2023-03-07T03:02:37.064Z,35.70
2023-03-07T03:05:04.872Z,35.58
2023-03-07T03:07:31.927Z,33.92
2023-03-07T03:09:59.090Z,32.38
2023-03-07T03:12:26.214Z,37.38
2023-03-07T03:14:53.277Z,35.03
2023-03-07T03:17:20.312Z,35.80
2023-03-07T03:19:47.443Z,41.40
2023-03-07T03:22:14.463Z,39.78
2023-03-07T03:24:45.218Z,36.63
2023-03-07T03:27:15.236Z,38.72
2023-03-07T03:29:43.935Z,38.25
2023-03-07T03:32:12.369Z,38.53
2023-03-07T03:34:42.391Z,36.83
2023-03-07T03:37:09.357Z,37.58
2023-03-07T03:39:37.626Z,42.53
2023-03-07T03:42:06.163Z,41.10
2023-03-07T03:44:33.682Z,40.17
2023-03-07T03:47:01.592Z,41.67
2023-03-07T03:49:29.748Z,41.80
2023-03-07T03:51:56.856Z,39.67
2023-03-07T03:54:24.627Z,40.45
2023-03-07T03:56:53.793Z,42.47
2023-03-07T03:59:22.179Z,40.70
2023-03-07T04:01:50.191Z,39.92
2023-03-07T04:04:18.991Z,39.03
2023-03-07T04:06:46.092Z,39.60
2023-03-07T04:09:13.081Z,41.35
2023-03-07T04:11:42.843Z,38.95
2023-03-07T04:14:10.042Z,41.95
2023-03-07T04:16:37.091Z,39.20
2023-03-07T04:19:04.222Z,41.45
2023-03-07T04:21:31.224Z,38.63
2023-03-07T04:23:59.904Z,38.40
2023-03-07T04:26:31.485Z,37.88
2023-03-07T04:28:58.901Z,38.83
2023-03-07T04:31:36.027Z,35.38
2023-03-07T04:34:04.771Z,38.30
2023-03-07T04:36:32.366Z,39.33
2023-03-07T04:38:59.441Z,35.95
2023-03-07T04:41:27.011Z,34.50
2023-03-07T04:44:07.829Z,37.70
2023-03-07T04:46:35.633Z,33.25
2023-03-07T04:49:02.932Z,35.00
2023-03-07T04:51:29.956Z,32.65
2023-03-07T04:53:56.884Z,36.83
2023-03-07T04:56:23.836Z,34.90
2023-03-07T04:58:50.956Z,34.55
2023-03-07T05:01:19.181Z,39.25
2023-03-07T05:03:47.197Z,33.88
2023-03-07T05:06:16.373Z,34.20
2023-03-07T05:08:47.840Z,39.47
2023-03-07T05:11:15.199Z,33.47
2023-03-07T05:13:42.586Z,33.38
2023-03-07T05:16:10.459Z,37.50
2023-03-07T05:18:37.681Z,32.78
2023-03-07T05:21:04.905Z,36.05
2023-03-07T05:23:31.920Z,34.00
2023-03-07T05:25:58.938Z,32.20
2023-03-07T05:28:26.071Z,32.33
2023-03-07T05:30:53.549Z,34.70
2023-03-07T05:33:21.417Z,34.97
2023-03-07T05:35:48.771Z,33.38
2023-03-07T05:38:16.839Z,33.33
2023-03-07T05:40:44.165Z,33.03
2023-03-07T05:43:12.352Z,33.50
2023-03-07T05:45:39.619Z,34.38
2023-03-07T05:48:06.701Z,33.83
2023-03-07T05:50:33.763Z,36.97
2023-03-07T05:53:00.907Z,32.03
2023-03-07T05:55:30.644Z,31.38
2023-03-07T05:57:58.404Z,36.05
2023-03-07T06:00:26.223Z,33.60
2023-03-07T06:02:57.408Z,33.08
2023-03-07T06:05:25.528Z,34.33
2023-03-07T06:07:53.521Z,33.70
2023-03-07T06:10:21.200Z,33.80
2023-03-07T06:12:55.185Z,36.42
2023-03-07T06:15:24.562Z,31.65
2023-03-07T06:17:57.677Z,30.65
2023-03-07T06:20:25.353Z,32.63
2023-03-07T06:22:54.802Z,32.28
2023-03-07T06:25:21.961Z,33.97
2023-03-07T06:27:50.007Z,32.00
2023-03-07T06:30:17.401Z,31.30
2023-03-07T06:32:45.228Z,33.92
2023-03-07T06:35:12.340Z,33.00
2023-03-07T06:37:39.423Z,32.13
2023-03-07T06:40:09.333Z,34.17
2023-03-07T06:42:38.182Z,32.20
2023-03-07T06:45:06.498Z,33.25
2023-03-07T06:47:34.119Z,32.08
2023-03-07T06:50:02.370Z,32.25
2023-03-07T06:52:30.874Z,29.05
2023-03-07T06:55:00.568Z,31.75
2023-03-07T06:57:29.380Z,33.85
2023-03-07T06:59:56.669Z,32.63
2023-03-07T07:02:24.033Z,31.58
2023-03-07T07:04:51.300Z,34.97
2023-03-07T07:07:20.263Z,31.25
2023-03-07T07:09:47.611Z,29.58
2023-03-07T07:12:14.686Z,29.98
2023-03-07T07:14:41.702Z,42.72
2023-03-07T07:17:09.052Z,34.78
2023-03-07T07:19:36.610Z,33.33
2023-03-07T07:22:04.264Z,33.80
2023-03-07T07:24:31.317Z,32.53
2023-03-07T07:26:58.808Z,31.60
2023-03-07T07:29:26.321Z,34.67
2023-03-07T07:31:54.012Z,29.33
2023-03-07T07:34:21.817Z,31.15
2023-03-07T07:36:48.867Z,34.83
2023-03-07T07:39:18.088Z,32.90
2023-03-07T07:41:47.913Z,30.23
2023-03-07T07:44:16.904Z,27.88
2023-03-07T07:46:54.771Z,31.58
2023-03-07T07:49:21.891Z,29.70
2023-03-07T07:51:49.947Z,32.70
2023-03-07T07:54:17.158Z,32.10
2023-03-07T07:56:44.578Z,32.20
2023-03-07T07:59:12.451Z,32.85
2023-03-07T08:01:39.776Z,27.15
2023-03-07T08:04:07.961Z,28.67
2023-03-07T08:06:35.034Z,30.40
2023-03-07T08:09:02.592Z,28.92
2023-03-07T08:11:29.567Z,31.92
2023-03-07T08:13:56.730Z,32.55
2023-03-07T08:16:24.229Z,28.77
2023-03-07T08:18:57.064Z,29.45
2023-03-07T08:21:25.710Z,30.25
2023-03-07T08:23:55.082Z,28.98
2023-03-07T08:26:22.766Z,28.35
2023-03-07T08:28:50.049Z,30.67
2023-03-07T08:31:24.235Z,31.52
2023-03-07T08:33:52.377Z,26.60
2023-03-07T08:36:20.055Z,29.63
2023-03-07T08:38:52.194Z,28.67
2023-03-07T08:41:22.396Z,28.42
2023-03-07T08:43:49.704Z,29.02
2023-03-07T08:46:17.306Z,28.85
2023-03-07T08:48:44.645Z,27.75
2023-03-07T08:51:15.684Z,30.27
2023-03-07T08:53:44.125Z,27.40
2023-03-07T08:56:14.976Z,32.17
2023-03-07T08:58:42.480Z,25.40
2023-03-07T09:01:10.250Z,24.52
2023-03-07T09:03:37.387Z,26.70
2023-03-07T09:06:05.653Z,25.13
2023-03-07T09:08:33.174Z,25.85
2023-03-07T09:11:03.445Z,26.33
2023-03-07T09:13:31.265Z,23.17
2023-03-07T09:15:59.038Z,25.80
2023-03-07T09:18:26.333Z,25.98
2023-03-07T09:20:53.378Z,21.85
2023-03-07T09:23:20.426Z,21.60
2023-03-07T09:25:47.494Z,21.27
2023-03-07T09:28:14.712Z,20.90
2023-03-07T09:30:41.798Z,19.33
2023-03-07T09:33:08.889Z,18.50
2023-03-07T09:35:37.452Z,18.90
2023-03-07T09:38:04.616Z,19.60
2023-03-07T09:40:35.766Z,15.88
2023-03-07T09:43:15.191Z,20.80
2023-03-07T09:46:28.594Z,18.52
2023-03-07T09:49:14.017Z,16.33
2023-03-07T09:51:46.897Z,16.25
2023-03-07T09:54:33.020Z,14.23
2023-03-07T09:57:02.595Z,15.88
2023-03-07T09:59:49.081Z,15.20
2023-03-07T10:02:36.387Z,14.13
2023-03-07T10:05:32.000Z,15.07
2023-03-07T10:08:01.658Z,12.15
2023-03-07T10:10:41.910Z,17.02
2023-03-07T10:13:45.831Z,17.90
2023-03-07T10:16:29.295Z,12.43
2023-03-07T10:19:20.937Z,14.60
2023-03-07T10:22:24.404Z,11.70
2023-03-07T10:25:08.764Z,11.18
2023-03-07T10:27:35.875Z,12.48
2023-03-07T10:30:19.280Z,12.13
2023-03-07T10:32:51.161Z,12.50
2023-03-07T10:35:39.046Z,10.90
2023-03-07T10:38:30.186Z,11.48
2023-03-07T10:41:04.003Z,10.63
2023-03-07T10:43:33.862Z,10.45
2023-03-07T10:46:27.070Z,10.48
2023-03-07T10:49:08.773Z,9.35
2023-03-07T10:52:26.834Z,9.82
2023-03-07T10:54:55.044Z,10.93
2023-03-07T10:57:28.087Z,7.50
2023-03-07T10:59:55.050Z,11.77
2023-03-07T11:02:35.405Z,10.10
2023-03-07T11:05:45.324Z,8.27
2023-03-07T11:08:36.248Z,8.68
2023-03-07T11:11:05.277Z,9.98
2023-03-07T11:13:32.557Z,10.93
2023-03-07T11:16:19.183Z,10.05
2023-03-07T11:18:46.773Z,10.00
2023-03-07T11:21:35.130Z,7.70
2023-03-07T11:24:29.747Z,8.80
2023-03-07T11:26:59.562Z,7.22
2023-03-07T11:29:28.416Z,6.35
2023-03-07T11:32:24.653Z,5.15
2023-03-07T11:35:04.173Z,4.43
2023-03-07T11:37:42.242Z,4.70
2023-03-07T11:40:23.204Z,3.20
2023-03-07T11:43:20.702Z,5.00
2023-03-07T11:46:14.858Z,3.75
2023-03-07T11:49:01.632Z,2.95
2023-03-07T11:51:52.830Z,3.75
2023-03-07T11:54:32.497Z,3.97
2023-03-07T11:57:15.601Z,5.68
2023-03-07T12:00:28.035Z,3.75
2023-03-07T12:03:18.571Z,3.65
2023-03-07T12:06:22.814Z,2.90
2023-03-07T12:09:57.387Z,10.38
2023-03-07T12:12:52.840Z,4.07
2023-03-07T12:15:34.449Z,6.03
2023-03-07T12:18:56.614Z,4.38
2023-03-07T12:21:54.848Z,3.95
2023-03-07T12:24:31.311Z,4.50
2023-03-07T12:27:11.384Z,2.97
2023-03-07T12:29:44.628Z,4.63
2023-03-07T12:32:21.452Z,4.00
2023-03-07T12:35:17.444Z,2.55
2023-03-07T12:37:56.562Z,3.22
2023-03-07T12:40:38.140Z,5.43
2023-03-07T12:43:44.315Z,3.22
2023-03-07T12:46:57.567Z,3.05
2023-03-07T12:49:54.509Z,3.25
2023-03-07T12:52:30.883Z,3.38
2023-03-07T12:55:47.054Z,3.88
2023-03-07T12:58:37.505Z,3.80
2023-03-07T13:01:14.925Z,3.55
2023-03-07T13:04:01.444Z,2.63
2023-03-07T13:06:29.766Z,3.40
2023-03-07T13:09:03.977Z,1.67
2023-03-07T13:11:34.797Z,2.55
2023-03-07T13:14:05.995Z,2.45
2023-03-07T13:16:35.916Z,6.78
2023-03-07T13:19:37.013Z,4.07
2023-03-07T13:22:24.201Z,5.85
2023-03-07T13:25:27.927Z,3.42
2023-03-07T13:28:00.377Z,1.77
2023-03-07T13:30:32.740Z,2.85
2023-03-07T13:33:02.053Z,4.60
2023-03-07T13:35:29.159Z,3.28
2023-03-07T13:38:15.001Z,2.63
2023-03-07T13:40:58.373Z,4.25
2023-03-07T13:43:27.797Z,2.67
2023-03-07T13:46:01.720Z,3.70
2023-03-07T13:48:28.833Z,3.05
2023-03-07T13:50:55.939Z,2.85
2023-03-07T13:53:30.057Z,2.85
2023-03-07T13:56:15.671Z,4.68
2023-03-07T13:59:07.113Z,2.53
2023-03-07T14:01:49.104Z,2.85
2023-03-07T14:04:39.462Z,3.65
2023-03-07T14:07:43.210Z,4.15
2023-03-07T14:10:23.790Z,3.60
2023-03-07T14:13:04.965Z,2.00
2023-03-07T14:15:57.162Z,2.60
2023-03-07T14:19:11.785Z,1.95
2023-03-07T14:21:54.750Z,2.42
2023-03-07T14:25:14.209Z,2.30
2023-03-07T14:28:02.500Z,3.05
2023-03-07T14:30:33.633Z,3.53
2023-03-07T14:33:01.438Z,2.85
2023-03-07T14:35:45.137Z,4.20
2023-03-07T14:38:25.885Z,4.53
2023-03-07T14:41:18.033Z,2.83
2023-03-07T14:44:27.173Z,4.60
2023-03-07T14:47:44.832Z,3.70
2023-03-07T14:50:26.443Z,3.42
2023-03-07T14:53:07.046Z,4.13
2023-03-07T14:55:46.728Z,2.78
2023-03-07T14:58:29.948Z,3.38
2023-03-07T15:01:06.974Z,2.00
2023-03-07T15:03:34.081Z,2.00
2023-03-07T15:06:03.058Z,4.70
2023-03-07T15:08:35.463Z,3.95
2023-03-07T15:11:22.614Z,3.85
2023-03-07T15:13:49.471Z,3.67
2023-03-07T15:16:25.547Z,3.00
2023-03-07T15:19:15.352Z,4.38
2023-03-07T15:21:56.583Z,1.83
2023-03-07T15:24:32.529Z,8.05
2023-03-07T15:27:01.068Z,1.90
2023-03-07T15:29:30.753Z,2.47
2023-03-07T15:32:02.835Z,3.85
2023-03-07T15:34:40.658Z,5.50
2023-03-07T15:37:29.712Z,4.75
2023-03-07T15:40:07.971Z,2.83
2023-03-07T15:42:49.367Z,1.38
2023-03-07T15:45:33.892Z,1.77
2023-03-07T15:48:32.083Z,1.73
2023-03-07T15:51:04.438Z,3.20
2023-03-07T15:53:38.342Z,4.85
2023-03-07T15:56:40.885Z,2.88
2023-03-07T15:59:21.767Z,1.92
2023-03-07T16:01:48.868Z,3.78
2023-03-07T16:04:37.640Z,3.70
2023-03-07T16:07:06.348Z,2.55
2023-03-07T16:09:33.657Z,2.70
2023-03-07T16:12:00.670Z,1.65
2023-03-07T16:14:33.412Z,5.15
2023-03-07T16:17:04.239Z,5.22
2023-03-07T16:19:32.235Z,1.90
2023-03-07T16:21:59.506Z,4.57
2023-03-07T16:24:26.562Z,2.47
2023-03-07T16:26:53.582Z,3.08
2023-03-07T16:29:23.064Z,5.22
2023-03-07T16:31:50.523Z,2.90
2023-03-07T16:34:21.706Z,4.25
2023-03-07T16:36:48.859Z,3.38
2023-03-07T16:39:17.888Z,3.78
2023-03-07T16:41:48.590Z,2.15
2023-03-07T16:44:18.957Z,2.67
2023-03-07T16:46:59.041Z,4.78
2023-03-07T16:49:25.950Z,4.90
2023-03-07T16:52:05.084Z,3.00
2023-03-07T16:54:33.631Z,6.05
2023-03-07T16:57:02.778Z,2.83
2023-03-07T16:59:35.824Z,3.38
2023-03-07T17:02:18.818Z,3.88
2023-03-07T17:04:46.186Z,4.72
2023-03-07T17:07:20.145Z,2.00
2023-03-07T17:09:47.250Z,4.75
2023-03-07T17:12:15.548Z,3.58
2023-03-07T17:14:42.836Z,3.47
2023-03-07T17:17:35.434Z,3.30
2023-03-07T17:20:05.630Z,5.55
2023-03-07T17:22:32.766Z,4.43
2023-03-07T17:25:01.143Z,5.50
2023-03-07T17:27:28.649Z,6.45
2023-03-07T17:29:55.969Z,2.70
2023-03-07T17:32:23.219Z,4.03
2023-03-07T17:34:50.196Z,5.00
2023-03-07T17:37:17.850Z,2.72
2023-03-07T17:39:45.641Z,5.20
2023-03-07T17:42:12.939Z,4.03
2023-03-07T17:44:40.183Z,4.13
2023-03-07T17:47:07.533Z,3.00
2023-03-07T17:49:38.081Z,4.88
2023-03-07T17:52:06.790Z,4.20
2023-03-07T17:54:33.937Z,4.50
2023-03-07T17:57:01.942Z,2.90
2023-03-07T17:59:32.481Z,4.38
2023-03-07T18:01:59.622Z,6.97
2023-03-07T18:04:28.612Z,3.97
2023-03-07T18:06:55.588Z,4.75
2023-03-07T18:09:23.257Z,3.88
2023-03-07T18:11:50.181Z,2.92
2023-03-07T18:14:17.501Z,6.45
2023-03-07T18:16:44.957Z,4.13
2023-03-07T18:19:25.312Z,5.50
2023-03-07T18:21:53.060Z,3.08
2023-03-07T18:24:29.992Z,3.83
2023-03-07T18:27:02.604Z,5.50
2023-03-07T18:29:30.723Z,6.07
2023-03-07T18:31:57.724Z,5.28
2023-03-07T18:34:24.951Z,7.85
2023-03-07T18:36:52.939Z,5.43
2023-03-07T18:39:24.058Z,4.38
2023-03-07T18:41:51.797Z,5.45
2023-03-07T18:44:19.637Z,4.25
2023-03-07T18:46:46.757Z,6.75
2023-03-07T18:49:13.815Z,5.88
2023-03-07T18:51:42.734Z,4.05
2023-03-07T18:54:10.186Z,4.43
2023-03-07T18:56:37.245Z,5.97
2023-03-07T18:59:04.478Z,4.30
2023-03-07T19:01:35.611Z,5.07
2023-03-07T19:04:04.272Z,4.05
2023-03-07T19:06:40.723Z,6.80
2023-03-07T19:09:17.651Z,5.72
2023-03-07T19:11:44.645Z,3.90
2023-03-07T19:14:12.002Z,5.47
2023-03-07T19:16:39.767Z,6.13
2023-03-07T19:19:06.970Z,9.88
2023-03-07T19:21:34.134Z,7.95
2023-03-07T19:24:04.420Z,6.65
2023-03-07T19:26:31.655Z,6.15
2023-03-07T19:28:58.945Z,5.20
2023-03-07T19:31:29.618Z,4.15
2023-03-07T19:33:58.986Z,7.57
2023-03-07T19:36:28.654Z,5.18
2023-03-07T19:38:59.086Z,7.00
2023-03-07T19:41:28.859Z,3.97
2023-03-07T19:43:59.019Z,6.13
2023-03-07T19:46:26.127Z,6.60
2023-03-07T19:48:53.364Z,4.47
2023-03-07T19:51:25.968Z,7.15
2023-03-07T19:53:56.931Z,7.43
2023-03-07T19:56:29.703Z,6.10
2023-03-07T19:58:59.909Z,5.00
2023-03-07T20:01:28.957Z,6.03
2023-03-07T20:03:56.841Z,7.43
2023-03-07T20:06:30.829Z,5.97
2023-03-07T20:08:59.978Z,7.95
2023-03-07T20:11:35.841Z,5.82
2023-03-07T20:14:06.561Z,6.95
2023-03-07T20:16:35.280Z,7.18
2023-03-07T20:19:06.768Z,6.65
2023-03-07T20:21:36.343Z,6.88
2023-03-07T20:24:03.951Z,7.60
2023-03-07T20:26:34.779Z,6.32
2023-03-07T20:29:04.328Z,7.03
2023-03-07T20:31:31.898Z,7.47
2023-03-07T20:34:00.581Z,6.32
2023-03-07T20:36:31.094Z,7.60
2023-03-07T20:39:01.740Z,6.88
2023-03-07T20:41:31.822Z,9.02
2023-03-07T20:44:03.627Z,12.95
2023-03-07T20:46:31.919Z,8.07
2023-03-07T20:49:00.976Z,8.40
2023-03-07T20:51:31.472Z,10.07
2023-03-07T20:54:07.935Z,8.40
2023-03-07T20:56:38.470Z,8.15
2023-03-07T20:59:06.160Z,8.13
2023-03-07T21:01:34.959Z,8.35
2023-03-07T21:04:11.308Z,10.27
2023-03-07T21:06:42.677Z,8.30
2023-03-07T21:09:12.077Z,9.23
2023-03-07T21:11:47.825Z,8.95
2023-03-07T21:14:17.476Z,10.52
2023-03-07T21:16:44.444Z,12.57
2023-03-07T21:19:14.936Z,10.15
2023-03-07T21:21:42.434Z,10.93
2023-03-07T21:24:12.423Z,11.82
2023-03-07T21:26:39.444Z,11.25
2023-03-07T21:29:08.898Z,10.98
2023-03-07T21:31:37.214Z,11.15
2023-03-07T21:34:13.216Z,11.38
2023-03-07T21:36:40.323Z,8.77
2023-03-07T21:39:09.909Z,8.85
2023-03-07T21:41:37.488Z,10.65
2023-03-07T21:44:07.384Z,7.78
2023-03-07T21:46:34.537Z,19.30
2023-03-07T21:49:01.745Z,8.43
2023-03-07T21:51:28.849Z,8.73
2023-03-07T21:53:55.794Z,8.20
2023-03-07T21:56:23.887Z,9.18
2023-03-07T21:58:51.797Z,8.30
2023-03-07T22:01:26.674Z,6.70
2023-03-07T22:03:56.644Z,8.57
2023-03-07T22:06:24.861Z,8.40
2023-03-07T22:08:52.009Z,5.97
2023-03-07T22:11:19.059Z,13.57
2023-03-07T22:13:46.129Z,10.75
2023-03-07T22:16:16.796Z,8.68
2023-03-07T22:18:43.956Z,7.82
2023-03-07T22:21:14.235Z,9.02
2023-03-07T22:23:42.321Z,7.28
2023-03-07T22:26:11.979Z,9.27
2023-03-07T22:28:40.515Z,9.43
2023-03-07T22:31:11.796Z,10.85
2023-03-07T22:33:40.091Z,8.77
2023-03-07T22:36:10.817Z,7.88
2023-03-07T22:38:38.072Z,8.05
2023-03-07T22:41:15.544Z,5.30
2023-03-07T22:43:43.070Z,7.78
2023-03-07T22:46:10.797Z,7.25
2023-03-07T22:48:37.946Z,8.63
2023-03-07T22:51:09.833Z,12.48
2023-03-07T22:53:36.853Z,5.80
2023-03-07T22:56:10.190Z,4.95
2023-03-07T22:58:37.222Z,8.60
2023-03-07T23:01:22.257Z,5.13
2023-03-07T23:03:51.793Z,10.25
2023-03-07T23:06:21.703Z,5.88
2023-03-07T23:08:51.751Z,8.45
2023-03-07T23:11:22.125Z,6.97
2023-03-07T23:13:49.080Z,7.43
2023-03-07T23:16:20.429Z,4.75
2023-03-07T23:18:50.635Z,3.38
2023-03-07T23:21:20.661Z,7.65
2023-03-07T23:23:48.184Z,3.53
2023-03-07T23:26:31.341Z,5.82
2023-03-07T23:28:59.478Z,7.88
2023-03-07T23:31:30.787Z,7.95
2023-03-07T23:34:05.861Z,4.45
2023-03-07T23:36:33.872Z,6.57
2023-03-07T23:39:01.191Z,6.47
2023-03-07T23:41:28.470Z,3.80
2023-03-07T23:43:59.038Z,3.30
2023-03-07T23:46:27.014Z,6.50
2023-03-07T23:48:55.630Z,5.50
2023-03-07T23:51:24.395Z,5.40
2023-03-07T23:53:51.440Z,13.48
2023-03-07T23:56:18.458Z,6.35
2023-03-07T23:58:50.168Z,3.78
